createdAt,value
2018-02-05T00:00:52.803Z,3.26
2018-02-05T00:02:02.843Z,3.24
2018-02-05T00:03:12.634Z,3.27
2018-02-05T00:04:22.679Z,3.27
2018-02-05T00:05:32.472Z,3.23
2018-02-05T00:06:42.271Z,3.23
2018-02-05T00:07:52.316Z,3.26
2018-02-05T00:09:02.174Z,3.24
2018-02-05T00:10:11.428Z,3.26
2018-02-05T00:11:21.270Z,3.3
2018-02-05T00:12:31.366Z,3.23
2018-02-05T00:13:41.413Z,3.09
2018-02-05T00:14:51.466Z,3.14
2018-02-05T00:16:01.501Z,3.16
2018-02-05T00:17:11.277Z,3.05
2018-02-05T00:18:21.338Z,3.11
2018-02-05T00:19:31.395Z,3.16
2018-02-05T00:20:41.509Z,3.14
2018-02-05T00:21:51.558Z,3.11
2018-02-05T00:23:01.352Z,2.98
2018-02-05T00:24:11.146Z,3.03
2018-02-05T00:25:20.919Z,3.09
2018-02-05T00:26:30.971Z,3.05
2018-02-05T00:27:41.019Z,2.98
2018-02-05T00:28:51.050Z,3.06
2018-02-05T00:30:00.826Z,3.01
2018-02-05T00:31:10.938Z,2.99
2018-02-05T00:32:21.038Z,2.95
2018-02-05T00:33:30.822Z,2.93
2018-02-05T00:34:40.866Z,2.87
2018-02-05T00:35:50.962Z,2.88
2018-02-05T00:37:00.752Z,2.93
2018-02-05T00:38:10.807Z,2.91
2018-02-05T00:39:20.340Z,2.91
2018-02-05T00:40:30.370Z,2.78
2018-02-05T00:41:40.411Z,2.85
2018-02-05T00:42:50.448Z,2.78
2018-02-05T00:44:00.234Z,2.77
2018-02-05T00:45:10.284Z,2.73
2018-02-05T00:46:20.064Z,2.72
2018-02-05T00:47:30.105Z,2.7
2018-02-05T00:48:39.633Z,2.65
2018-02-05T00:49:49.664Z,2.6
2018-02-05T00:50:59.714Z,2.62
2018-02-05T00:52:09.766Z,2.72
2018-02-05T00:53:19.818Z,2.73
2018-02-05T00:54:29.870Z,2.65
2018-02-05T00:55:39.940Z,2.73
2018-02-05T00:56:49.981Z,2.76
2018-02-05T00:58:00.021Z,2.62
2018-02-05T00:59:11.063Z,2.72
2018-02-05T01:00:20.845Z,2.66
2018-02-05T01:01:30.361Z,2.7
2018-02-05T01:02:40.418Z,2.77
2018-02-05T01:03:50.454Z,2.69
2018-02-05T01:05:00.510Z,2.66
2018-02-05T01:06:10.297Z,2.6
2018-02-05T01:07:20.345Z,2.73
2018-02-05T01:08:30.408Z,2.6
2018-02-05T01:09:40.458Z,2.76
2018-02-05T01:10:50.508Z,2.65
2018-02-05T01:12:00.538Z,2.6
2018-02-05T01:13:10.574Z,2.63
2018-02-05T01:14:20.641Z,2.73
2018-02-05T01:15:30.768Z,2.69
2018-02-05T01:16:40.817Z,2.77
2018-02-05T01:17:50.856Z,2.62
2018-02-05T01:19:00.632Z,2.77
2018-02-05T01:20:10.411Z,2.69
2018-02-05T01:21:20.446Z,2.7
2018-02-05T01:22:30.502Z,2.62
2018-02-05T01:23:40.077Z,2.6
2018-02-05T01:24:49.843Z,2.67
2018-02-05T01:25:59.889Z,2.63
2018-02-05T01:27:09.935Z,2.63
2018-02-05T01:28:19.972Z,2.63
2018-02-05T01:29:29.742Z,2.59
2018-02-05T01:30:39.851Z,2.58
2018-02-05T01:31:49.914Z,2.59
2018-02-05T01:32:59.959Z,2.63
2018-02-05T01:34:09.489Z,2.59
2018-02-05T01:35:19.258Z,2.55
2018-02-05T01:36:28.782Z,2.6
2018-02-05T01:37:38.825Z,2.59
2018-02-05T01:38:48.873Z,2.6
2018-02-05T01:39:58.393Z,2.58
2018-02-05T01:41:08.431Z,2.45
2018-02-05T01:42:18.475Z,2.47
2018-02-05T01:43:28.259Z,2.49
2018-02-05T01:44:38.296Z,2.52
2018-02-05T01:45:48.345Z,2.49
2018-02-05T01:46:58.125Z,2.49
2018-02-05T01:48:07.911Z,2.51
2018-02-05T01:49:17.694Z,2.49
2018-02-05T01:50:27.480Z,2.48
2018-02-05T01:51:37.531Z,2.45
2018-02-05T01:52:47.618Z,2.51
2018-02-05T01:53:57.187Z,2.45
2018-02-05T01:55:07.236Z,2.42
2018-02-05T01:56:17.009Z,2.36
2018-02-05T01:57:27.056Z,2.45
2018-02-05T01:58:36.832Z,2.36
2018-02-05T01:59:46.860Z,2.38
2018-02-05T02:00:56.641Z,2.45
2018-02-05T02:02:06.670Z,2.4
2018-02-05T02:03:16.710Z,2.36
2018-02-05T02:04:26.242Z,2.33
2018-02-05T02:05:36.333Z,2.33
2018-02-05T02:06:46.387Z,2.3
2018-02-05T02:07:56.427Z,2.33
2018-02-05T02:09:06.214Z,2.38
2018-02-05T02:10:16.243Z,2.33
2018-02-05T02:11:26.274Z,2.33
2018-02-05T02:12:36.324Z,2.3
2018-02-05T02:13:46.100Z,2.23
2018-02-05T02:14:55.623Z,2.27
2018-02-05T02:16:05.715Z,2.26
2018-02-05T02:17:15.236Z,2.27
2018-02-05T02:18:25.297Z,2.2
2018-02-05T02:19:35.094Z,2.36
2018-02-05T02:20:45.141Z,2.2
2018-02-05T02:21:54.916Z,2.23
2018-02-05T02:23:04.723Z,2.27
2018-02-05T02:24:14.785Z,2.27
2018-02-05T02:25:24.828Z,2.2
2018-02-05T02:26:34.865Z,2.24
2018-02-05T02:27:44.908Z,2.2
2018-02-05T02:28:54.961Z,2.23
2018-02-05T02:30:05.001Z,2.23
2018-02-05T02:31:14.533Z,2.33
2018-02-05T02:32:24.324Z,2.26
2018-02-05T02:33:34.129Z,2.31
2018-02-05T02:34:44.183Z,2.31
2018-02-05T02:35:54.325Z,2.29
2018-02-05T02:37:04.104Z,2.31
2018-02-05T02:38:14.156Z,2.3
2018-02-05T02:39:24.194Z,2.31
2018-02-05T02:40:34.031Z,2.27
2018-02-05T02:41:43.555Z,2.26
2018-02-05T02:42:53.660Z,2.26
2018-02-05T02:44:03.706Z,2.36
2018-02-05T02:45:13.492Z,2.27
2018-02-05T02:46:23.322Z,2.31
2018-02-05T02:47:33.376Z,2.27
2018-02-05T02:48:43.413Z,2.24
2018-02-05T02:49:53.209Z,2.2
2018-02-05T02:51:03.008Z,2.23
2018-02-05T02:52:13.971Z,2.15
2018-02-05T02:53:24.037Z,2.16
2018-02-05T02:54:33.806Z,2.2
2018-02-05T02:55:43.861Z,2.16
2018-02-05T02:56:53.922Z,2.18
2018-02-05T02:58:03.756Z,2.22
2018-02-05T02:59:13.803Z,2.22
2018-02-05T03:00:23.596Z,2.04
2018-02-05T03:01:33.625Z,2.22
2018-02-05T03:02:43.707Z,2.18
2018-02-05T03:35:13.035Z,-1.32
2018-02-05T03:36:22.824Z,-1.45
2018-02-05T03:37:32.849Z,-1.45
2018-02-05T03:38:42.893Z,-1.34
2018-02-05T03:39:52.712Z,-1.21
2018-02-05T03:41:02.758Z,-1.14
2018-02-05T03:42:12.789Z,-0.96
2018-02-05T03:43:22.822Z,-0.87
2018-02-05T03:44:32.599Z,-0.66
2018-02-05T03:45:42.384Z,-0.55
2018-02-05T03:46:52.417Z,-0.38
2018-02-05T03:48:02.213Z,-0.23
2018-02-05T03:49:11.996Z,-0.09
2018-02-05T03:50:22.040Z,0.05
2018-02-05T03:51:32.070Z,0.17
2018-02-05T03:52:42.125Z,0.28
2018-02-05T03:53:52.178Z,0.39
2018-02-05T03:55:02.223Z,0.48
2018-02-05T03:56:12.273Z,0.6
2018-02-05T03:57:22.320Z,0.76
2018-02-05T03:58:32.375Z,0.76
2018-02-05T03:59:42.448Z,0.82
2018-02-05T04:00:52.486Z,0.89
2018-02-05T04:02:02.543Z,1.02
2018-02-05T04:03:12.317Z,1.04
2018-02-05T04:04:22.365Z,1.1
2018-02-05T04:05:32.391Z,1.17
2018-02-05T04:06:42.430Z,1.17
2018-02-05T04:07:52.471Z,1.2
2018-02-05T04:09:02.521Z,1.35
2018-02-05T04:10:12.617Z,1.35
2018-02-05T04:11:22.658Z,1.32
2018-02-05T04:12:32.179Z,1.39
2018-02-05T04:13:42.210Z,1.53
2018-02-05T04:14:52.265Z,1.39
2018-02-05T04:16:02.363Z,1.42
2018-02-05T04:17:12.411Z,1.48
2018-02-05T04:18:22.459Z,1.46
2018-02-05T04:19:32.506Z,1.51
2018-02-05T04:20:42.296Z,1.56
2018-02-05T04:21:52.334Z,1.6
2018-02-05T04:23:02.132Z,1.58
2018-02-05T04:24:12.163Z,1.61
2018-02-05T04:25:21.968Z,1.58
2018-02-05T04:26:31.759Z,1.54
2018-02-05T04:27:41.541Z,1.61
2018-02-05T04:28:51.581Z,1.71
2018-02-05T04:30:01.630Z,1.69
2018-02-05T04:31:11.409Z,1.71
2018-02-05T04:32:21.456Z,1.69
2018-02-05T04:33:31.559Z,1.72
2018-02-05T04:34:41.606Z,1.65
2018-02-05T04:35:51.667Z,1.71
2018-02-05T04:37:01.441Z,1.71
2018-02-05T04:38:10.970Z,1.68
2018-02-05T04:39:20.755Z,1.71
2018-02-05T04:40:30.558Z,1.74
2018-02-05T04:41:40.594Z,1.75
2018-02-05T04:42:50.641Z,1.74
2018-02-05T04:44:00.422Z,1.74
2018-02-05T04:45:09.683Z,1.64
2018-02-05T04:46:19.478Z,1.71
2018-02-05T04:47:29.261Z,1.6
2018-02-05T04:48:39.314Z,1.71
2018-02-05T04:49:49.353Z,1.66
2018-02-05T04:50:59.397Z,1.68
2018-02-05T04:52:09.421Z,1.61
2018-02-05T04:53:19.512Z,1.68
2018-02-05T04:54:29.565Z,1.68
2018-02-05T04:55:39.670Z,1.72
2018-02-05T04:56:49.757Z,1.68
2018-02-05T04:57:59.819Z,1.71
2018-02-05T04:59:09.902Z,1.64
2018-02-05T05:00:19.947Z,1.65
2018-02-05T05:01:29.983Z,1.6
2018-02-05T05:02:39.857Z,1.6
2018-02-05T05:03:49.896Z,1.6
2018-02-05T05:04:59.924Z,1.64
2018-02-05T05:06:09.701Z,1.54
2018-02-05T05:07:19.469Z,1.6
2018-02-05T05:08:29.526Z,1.68
2018-02-05T05:09:39.559Z,1.61
2018-02-05T05:10:49.602Z,1.64
2018-02-05T05:11:59.426Z,1.6
2018-02-05T05:13:09.471Z,1.58
2018-02-05T05:14:19.518Z,1.58
2018-02-05T05:15:29.562Z,1.48
2018-02-05T05:16:39.624Z,1.48
2018-02-05T05:17:49.659Z,1.48
2018-02-05T05:18:59.454Z,1.48
2018-02-05T05:20:09.293Z,1.56
2018-02-05T05:21:19.338Z,1.54
2018-02-05T05:22:29.390Z,1.46
2018-02-05T05:23:39.421Z,1.51
2018-02-05T05:24:49.202Z,1.56
2018-02-05T05:25:59.279Z,1.51
2018-02-05T05:27:09.323Z,1.5
2018-02-05T05:28:19.364Z,1.5
2018-02-05T05:29:29.158Z,1.42
2018-02-05T05:30:39.199Z,1.48
2018-02-05T05:31:48.995Z,1.44
2018-02-05T05:32:58.567Z,1.46
2018-02-05T05:34:08.627Z,1.5
2018-02-05T05:35:18.150Z,1.39
2018-02-05T05:36:27.927Z,1.39
2018-02-05T05:37:37.439Z,1.44
2018-02-05T05:38:46.959Z,1.46
2018-02-05T05:39:56.737Z,1.46
2018-02-05T05:41:06.519Z,1.46
2018-02-05T05:42:16.310Z,1.48
2018-02-05T05:43:26.137Z,1.48
2018-02-05T05:44:36.203Z,1.42
2018-02-05T05:45:46.241Z,1.39
2018-02-05T05:46:56.274Z,1.44
2018-02-05T05:48:06.054Z,1.46
2018-02-05T05:49:15.851Z,1.48
2018-02-05T05:50:25.902Z,1.54
2018-02-05T05:51:35.683Z,1.46
2018-02-05T05:52:45.485Z,1.5
2018-02-05T05:53:55.523Z,1.46
2018-02-05T05:55:05.319Z,1.47
2018-02-05T05:56:15.448Z,1.44
2018-02-05T05:57:25.222Z,1.51
2018-02-05T05:58:35.274Z,1.48
2018-02-05T05:59:45.067Z,1.42
2018-02-05T06:00:54.848Z,1.32
2018-02-05T06:02:04.890Z,1.36
2018-02-05T06:03:14.933Z,1.33
2018-02-05T06:04:24.731Z,1.36
2018-02-05T06:05:34.497Z,1.42
2018-02-05T06:06:44.279Z,1.38
2018-02-05T06:07:54.339Z,1.39
2018-02-05T06:09:04.114Z,1.42
2018-02-05T06:10:14.143Z,1.48
2018-02-05T06:11:24.189Z,1.46
2018-02-05T06:12:33.985Z,1.42
2018-02-05T06:13:43.513Z,1.47
2018-02-05T06:14:53.293Z,1.51
2018-02-05T06:16:03.081Z,1.44
2018-02-05T06:17:13.117Z,1.42
2018-02-05T06:18:23.201Z,1.46
2018-02-05T06:19:33.241Z,1.54
2018-02-05T06:20:43.029Z,1.48
2018-02-05T06:21:52.809Z,1.46
2018-02-05T06:23:02.858Z,1.48
2018-02-05T06:24:12.651Z,1.44
2018-02-05T06:25:22.434Z,1.56
2018-02-05T06:26:32.237Z,1.46
2018-02-05T06:27:42.283Z,1.47
2018-02-05T06:28:52.074Z,1.5
2018-02-05T06:30:01.848Z,1.6
2018-02-05T06:31:11.620Z,1.46
2018-02-05T06:32:21.395Z,1.6
2018-02-05T06:33:31.232Z,1.54
2018-02-05T06:34:41.275Z,1.61
2018-02-05T06:35:51.071Z,1.58
2018-02-05T06:37:01.122Z,1.66
2018-02-05T06:38:10.914Z,1.58
2018-02-05T06:39:20.948Z,1.65
2018-02-05T06:40:30.728Z,1.68
2018-02-05T06:41:40.789Z,1.71
2018-02-05T06:42:50.573Z,1.64
2018-02-05T06:44:00.632Z,1.68
2018-02-05T06:45:10.655Z,1.71
2018-02-05T06:46:20.450Z,1.78
2018-02-05T06:47:30.255Z,1.79
2018-02-05T06:48:40.329Z,1.75
2018-02-05T06:49:50.376Z,1.86
2018-02-05T06:51:00.156Z,1.79
2018-02-05T06:52:10.196Z,1.89
2018-02-05T06:53:20.239Z,1.92
2018-02-05T06:54:30.280Z,2.02
2018-02-05T06:55:40.327Z,2.11
2018-02-05T06:56:50.404Z,2.16
2018-02-05T06:58:00.488Z,2.12
2018-02-05T06:59:10.546Z,2.2
2018-02-05T07:00:20.319Z,2.2
2018-02-05T07:01:30.348Z,2.18
2018-02-05T07:02:40.398Z,2.23
2018-02-05T07:03:50.427Z,2.3
2018-02-05T07:05:00.271Z,2.31
2018-02-05T07:06:10.307Z,2.42
2018-02-05T07:07:20.588Z,2.47
2018-02-05T07:08:30.634Z,2.52
2018-02-05T07:09:40.467Z,2.6
2018-02-05T07:10:50.521Z,2.6
2018-02-05T07:12:00.574Z,2.59
2018-02-05T07:13:10.359Z,2.69
2018-02-05T07:14:20.398Z,2.7
2018-02-05T07:15:30.454Z,2.77
2018-02-05T07:16:40.502Z,2.77
2018-02-05T07:17:50.288Z,2.77
2018-02-05T07:19:00.079Z,2.9
2018-02-05T07:20:10.120Z,2.95
2018-02-05T07:21:20.173Z,3.14
2018-02-05T07:22:30.211Z,3.16
2018-02-05T07:23:40.317Z,3.27
2018-02-05T07:24:50.361Z,3.35
2018-02-05T07:26:00.407Z,3.35
2018-02-05T07:27:10.443Z,3.45
2018-02-05T07:28:20.211Z,3.54
2018-02-05T07:29:30.254Z,3.56
2018-02-05T07:30:40.293Z,3.49
2018-02-05T07:31:50.079Z,3.63
2018-02-05T07:33:00.126Z,3.69
2018-02-05T07:34:10.170Z,3.78
2018-02-05T07:35:20.201Z,3.82
2018-02-05T07:36:29.994Z,3.86
2018-02-05T07:37:39.798Z,3.92
2018-02-05T07:38:49.841Z,3.85
2018-02-05T07:39:59.680Z,3.92
2018-02-05T07:41:09.741Z,3.99
2018-02-05T07:42:19.281Z,3.93
2018-02-05T07:43:29.334Z,4.03
2018-02-05T07:44:39.431Z,4.08
2018-02-05T07:45:49.491Z,4.12
2018-02-05T07:46:59.545Z,4.12
2018-02-05T07:48:09.589Z,4.14
2018-02-05T07:49:19.436Z,4.18
2018-02-05T07:50:29.486Z,4.28
2018-02-05T07:51:39.262Z,4.39
2018-02-05T07:52:49.318Z,4.32
2018-02-05T07:53:59.092Z,4.38
2018-02-05T07:55:09.155Z,4.33
2018-02-05T07:56:19.215Z,4.39
2018-02-05T07:57:29.250Z,4.47
2018-02-05T07:58:39.298Z,4.48
2018-02-05T07:59:49.354Z,4.5
2018-02-05T08:00:59.398Z,4.6
2018-02-05T08:02:09.320Z,4.69
2018-02-05T08:03:18.847Z,4.75
2018-02-05T08:04:28.629Z,4.75
2018-02-05T08:05:38.687Z,4.95
2018-02-05T08:06:48.752Z,4.91
2018-02-05T08:07:58.625Z,5.02
2018-02-05T08:09:08.697Z,5.1
2018-02-05T08:10:18.739Z,5.12
2018-02-05T08:11:28.785Z,5.16
2018-02-05T08:12:38.845Z,5.24
2018-02-05T08:13:48.892Z,5.33
2018-02-05T08:14:58.677Z,5.27
2018-02-05T08:16:08.753Z,5.41
2018-02-05T08:17:18.549Z,5.41
2018-02-05T08:18:28.611Z,5.49
2018-02-05T08:19:38.653Z,5.52
2018-02-05T08:20:48.434Z,5.57
2018-02-05T08:21:58.477Z,5.7
2018-02-05T08:23:08.533Z,5.75
2018-02-05T08:24:18.590Z,5.82
2018-02-05T08:25:28.380Z,5.95
2018-02-05T08:26:38.412Z,5.91
2018-02-05T08:27:48.460Z,6.05
2018-02-05T08:28:57.991Z,6.1
2018-02-05T08:30:08.049Z,6.24
2018-02-05T08:31:18.094Z,6.26
2018-02-05T08:32:28.166Z,6.31
2018-02-05T08:33:38.204Z,6.37
2018-02-05T08:34:48.260Z,6.29
2018-02-05T08:35:58.322Z,6.31
2018-02-05T08:37:08.437Z,6.28
2018-02-05T08:38:18.466Z,6.34
2018-02-05T08:39:28.519Z,6.46
2018-02-05T08:40:38.579Z,6.44
2018-02-05T08:41:48.371Z,6.52
2018-02-05T08:42:58.474Z,6.57
2018-02-05T08:44:08.521Z,6.55
2018-02-05T08:45:19.212Z,6.55
2018-02-05T08:46:29.008Z,6.62
2018-02-05T08:47:39.075Z,6.68
2018-02-05T08:48:49.095Z,6.76
2018-02-05T08:49:59.139Z,6.76
2018-02-05T08:51:09.185Z,6.85
2018-02-05T08:52:19.240Z,6.83
2018-02-05T08:53:29.285Z,6.82
2018-02-05T08:54:39.351Z,6.95
2018-02-05T08:55:49.157Z,6.97
2018-02-05T08:56:59.203Z,6.95
2018-02-05T08:58:09.251Z,7.08
2018-02-05T08:59:19.293Z,7.11
2018-02-05T09:00:29.339Z,7.16
2018-02-05T09:01:39.385Z,7.21
2018-02-05T09:02:49.429Z,7.19
2018-02-05T09:03:58.700Z,7.26
2018-02-05T09:05:08.752Z,7.22
2018-02-05T09:06:18.812Z,7.21
2018-02-05T09:07:28.859Z,7.27
2018-02-05T09:08:38.894Z,7.39
2018-02-05T09:09:48.673Z,7.37
2018-02-05T09:10:58.723Z,7.4
2018-02-05T09:12:08.762Z,7.44
2018-02-05T09:13:18.298Z,7.45
2018-02-05T09:14:28.357Z,7.51
2018-02-05T09:15:38.406Z,7.48
2018-02-05T09:16:48.193Z,7.51
2018-02-05T09:17:58.265Z,7.52
2018-02-05T09:19:08.068Z,7.63
2018-02-05T09:20:18.120Z,7.63
2018-02-05T09:21:27.914Z,7.7
2018-02-05T09:22:37.972Z,7.75
2018-02-05T09:23:47.499Z,7.82
2018-02-05T09:24:57.536Z,7.88
2018-02-05T09:26:07.333Z,7.98
2018-02-05T09:27:17.128Z,8.03
2018-02-05T09:28:27.173Z,8.04
2018-02-05T09:29:37.234Z,8.04
2018-02-05T09:30:47.278Z,7.99
2018-02-05T09:31:57.313Z,8.11
2018-02-05T09:33:07.392Z,8.11
2018-02-05T09:34:17.194Z,8.16
2018-02-05T09:35:27.248Z,8.31
2018-02-05T09:36:37.300Z,8.32
2018-02-05T09:37:47.346Z,8.28
2018-02-05T09:38:57.398Z,8.26
2018-02-05T09:40:07.175Z,8.28
2018-02-05T09:41:17.230Z,8.28
2018-02-05T09:42:27.284Z,8.32
2018-02-05T09:43:37.068Z,8.32
2018-02-05T09:44:47.122Z,8.32
2018-02-05T09:45:57.183Z,8.49
2018-02-05T09:47:07.239Z,8.29
2018-02-05T09:48:17.022Z,8.29
2018-02-05T09:49:27.075Z,8.34
2018-02-05T09:50:36.851Z,8.32
2018-02-05T09:51:46.628Z,8.31
2018-02-05T09:52:56.272Z,8.26
2018-02-05T09:54:06.341Z,8.26
2018-02-05T09:55:16.387Z,8.29
2018-02-05T09:56:26.479Z,8.49
2018-02-05T09:57:36.275Z,8.49
2018-02-05T09:58:46.330Z,8.61
2018-02-05T09:59:56.094Z,8.62
2018-02-05T10:01:05.980Z,8.64
2018-02-05T10:02:16.033Z,8.58
2018-02-05T10:03:26.081Z,8.6
2018-02-05T10:04:36.134Z,8.62
2018-02-05T10:05:46.187Z,8.58
2018-02-05T10:06:56.379Z,8.62
2018-02-05T10:08:06.488Z,8.67
2018-02-05T10:09:16.625Z,8.82
2018-02-05T10:10:26.382Z,8.87
2018-02-05T10:11:36.177Z,8.89
2018-02-05T10:12:46.222Z,8.85
2018-02-05T10:13:55.774Z,8.83
2018-02-05T10:15:05.322Z,8.86
2018-02-05T10:16:15.382Z,8.95
2018-02-05T10:17:25.443Z,9.03
2018-02-05T10:18:35.245Z,9.03
2018-02-05T10:19:45.354Z,9.12
2018-02-05T10:20:55.415Z,9.14
2018-02-05T10:22:05.458Z,9.11
2018-02-05T10:23:15.237Z,9.16
2018-02-05T10:24:25.290Z,9.23
2018-02-05T10:25:35.083Z,9.21
2018-02-05T10:26:45.157Z,9.29
2018-02-05T10:27:55.212Z,9.32
2018-02-05T10:29:05.004Z,9.39
2018-02-05T10:30:15.065Z,9.34
2018-02-05T10:31:25.121Z,9.37
2018-02-05T10:32:34.653Z,9.42
2018-02-05T10:33:44.710Z,9.44
2018-02-05T10:34:54.501Z,9.5
2018-02-05T10:36:04.544Z,9.59
2018-02-05T10:37:14.605Z,9.57
2018-02-05T10:38:23.889Z,9.64
2018-02-05T10:39:33.940Z,9.66
2018-02-05T10:40:43.994Z,9.63
2018-02-05T10:41:54.033Z,9.71
2018-02-05T10:43:03.934Z,9.78
2018-02-05T10:44:13.730Z,9.75
2018-02-05T10:45:23.764Z,9.78
2018-02-05T10:46:33.290Z,9.8
2018-02-05T10:47:43.081Z,9.75
2018-02-05T10:48:53.207Z,9.82
2018-02-05T10:50:03.283Z,9.84
2018-02-05T10:51:13.337Z,9.89
2018-02-05T10:52:23.124Z,9.85
2018-02-05T10:53:33.176Z,9.84
2018-02-05T10:54:42.698Z,9.81
2018-02-05T10:55:52.773Z,9.89
2018-02-05T10:57:02.840Z,9.82
2018-02-05T10:58:12.905Z,9.85
2018-02-05T10:59:22.691Z,9.81
2018-02-05T11:00:32.752Z,9.9
2018-02-05T11:01:43.377Z,9.66
2018-02-05T11:02:53.440Z,9.6
2018-02-05T11:04:03.499Z,9.63
2018-02-05T11:05:13.572Z,9.62
2018-02-05T11:06:23.615Z,9.6
2018-02-05T11:07:33.401Z,9.47
2018-02-05T11:08:43.468Z,9.29
2018-02-05T11:09:53.514Z,9.2
2018-02-05T11:11:03.578Z,9.11
2018-02-05T11:12:13.647Z,8.95
2018-02-05T11:13:23.697Z,9.11
2018-02-05T11:14:33.858Z,9.11
2018-02-05T11:15:43.893Z,9.14
2018-02-05T11:16:53.690Z,9.11
2018-02-05T11:18:03.471Z,9.21
2018-02-05T11:19:13.602Z,9.21
2018-02-05T11:20:23.380Z,9.19
2018-02-05T11:21:33.188Z,9.17
2018-02-05T11:22:43.220Z,9.19
2018-02-05T11:23:53.277Z,9.24
2018-02-05T11:25:03.059Z,9.27
2018-02-05T11:26:13.503Z,9.24
2018-02-05T11:27:23.795Z,9.39
2018-02-05T11:28:33.852Z,9.39
2018-02-05T11:29:43.653Z,9.37
2018-02-05T11:30:53.710Z,9.35
2018-02-05T11:32:03.772Z,9.41
2018-02-05T11:33:13.314Z,9.44
2018-02-05T11:34:22.840Z,9.53
2018-02-05T11:35:32.913Z,9.62
2018-02-05T11:36:43.019Z,9.57
2018-02-05T11:37:53.056Z,9.63
2018-02-05T11:39:02.853Z,9.64
2018-02-05T11:40:12.904Z,9.75
2018-02-05T11:41:22.969Z,9.84
2018-02-05T11:42:33.022Z,9.85
2018-02-05T11:43:42.991Z,9.84
2018-02-05T11:44:53.117Z,9.95
2018-02-05T11:46:03.178Z,9.85
2018-02-05T11:47:13.240Z,9.88
2018-02-05T11:48:23.303Z,9.95
2018-02-05T11:49:33.357Z,9.93
2018-02-05T11:50:43.409Z,9.98
2018-02-05T11:51:53.489Z,10.05
2018-02-05T11:53:03.589Z,10.05
2018-02-05T11:54:13.387Z,9.99
2018-02-05T11:55:23.439Z,10.14
2018-02-05T11:56:32.956Z,10.2
2018-02-05T11:57:43.016Z,10.26
2018-02-05T11:58:53.162Z,10.32
2018-02-05T12:00:03.230Z,10.35
2018-02-05T12:01:13.268Z,10.29
2018-02-05T12:02:23.325Z,10.41
2018-02-05T12:03:33.375Z,10.39
2018-02-05T12:04:43.458Z,10.46
2018-02-05T12:05:53.553Z,10.44
2018-02-05T12:07:03.599Z,10.49
2018-02-05T12:08:13.403Z,10.49
2018-02-05T12:09:23.260Z,10.57
2018-02-05T12:10:33.408Z,10.52
2018-02-05T12:11:43.449Z,10.46
2018-02-05T12:12:53.230Z,10.41
2018-02-05T12:14:02.766Z,10.42
2018-02-05T12:15:12.573Z,10.41
2018-02-05T12:16:22.376Z,10.31
2018-02-05T12:17:32.440Z,10.25
2018-02-05T12:18:42.243Z,10.28
2018-02-05T12:19:52.292Z,10.31
2018-02-05T12:21:02.089Z,10.21
2018-02-05T12:22:12.153Z,10.25
2018-02-05T12:23:21.942Z,10.13
2018-02-05T12:24:31.984Z,10.15
2018-02-05T12:25:42.055Z,10.08
2018-02-05T12:26:52.100Z,10.03
2018-02-05T12:28:01.683Z,9.95
2018-02-05T12:29:11.735Z,9.98
2018-02-05T12:30:21.790Z,9.93
2018-02-05T12:31:31.576Z,9.81
2018-02-05T12:32:41.641Z,9.78
2018-02-05T12:33:51.755Z,9.77
2018-02-05T12:35:01.822Z,9.67
2018-02-05T12:36:11.890Z,9.62
2018-02-05T12:37:21.933Z,9.67
2018-02-05T12:38:31.459Z,9.64
2018-02-05T12:39:41.506Z,9.7
2018-02-05T12:40:51.590Z,9.66
2018-02-05T12:42:01.390Z,9.74
2018-02-05T12:43:11.435Z,9.81
2018-02-05T12:44:21.485Z,9.81
2018-02-05T12:45:31.555Z,9.74
2018-02-05T12:46:41.610Z,9.8
2018-02-05T12:47:51.659Z,9.88
2018-02-05T12:49:01.217Z,9.84
2018-02-05T12:50:11.290Z,9.71
2018-02-05T12:51:21.409Z,9.71
2018-02-05T12:52:31.196Z,9.7
2018-02-05T12:53:41.259Z,9.77
2018-02-05T12:54:51.315Z,9.71
2018-02-05T12:56:01.129Z,9.64
2018-02-05T12:57:10.919Z,9.75
2018-02-05T12:58:20.868Z,9.63
2018-02-05T12:59:30.918Z,9.67
2018-02-05T13:00:40.981Z,9.6
2018-02-05T13:01:50.775Z,9.59
2018-02-05T13:03:00.824Z,9.63
2018-02-05T13:04:10.879Z,9.62
2018-02-05T13:05:20.947Z,9.44
2018-02-05T13:06:31.003Z,9.41
2018-02-05T13:07:40.567Z,9.39
2018-02-05T13:08:50.787Z,9.3
2018-02-05T13:10:00.875Z,9.37
2018-02-05T13:11:10.928Z,9.29
2018-02-05T13:12:21.000Z,9.37
2018-02-05T13:13:30.806Z,9.27
2018-02-05T13:14:40.856Z,9.34
2018-02-05T13:15:50.924Z,9.26
2018-02-05T13:17:00.722Z,9.27
2018-02-05T13:18:10.519Z,9.26
2018-02-05T13:19:20.562Z,9.24
2018-02-05T13:20:30.361Z,9.26
2018-02-05T13:21:40.422Z,9.35
2018-02-05T13:22:50.484Z,9.3
2018-02-05T13:24:00.572Z,9.44
2018-02-05T13:25:10.116Z,9.39
2018-02-05T13:26:20.218Z,9.37
2018-02-05T13:27:30.304Z,9.41
2018-02-05T13:28:40.373Z,9.29
2018-02-05T13:29:50.425Z,9.21
2018-02-05T13:31:00.469Z,9.26
2018-02-05T13:32:10.551Z,9.17
2018-02-05T13:33:20.611Z,9.2
2018-02-05T13:34:30.463Z,9.05
2018-02-05T13:35:40.524Z,8.92
2018-02-05T13:36:50.598Z,8.87
2018-02-05T13:38:00.395Z,8.83
2018-02-05T13:39:10.459Z,8.8
2018-02-05T13:40:20.513Z,8.82
2018-02-05T13:41:30.534Z,8.77
2018-02-05T13:42:40.577Z,8.77
2018-02-05T13:43:50.362Z,8.74
2018-02-05T13:45:01.074Z,8.72
2018-02-05T13:46:11.179Z,8.71
2018-02-05T13:47:20.975Z,8.74
2018-02-05T13:48:31.048Z,8.6
2018-02-05T13:49:41.136Z,8.57
2018-02-05T13:50:51.192Z,8.58
2018-02-05T13:52:01.269Z,8.5
2018-02-05T13:53:11.059Z,8.46
2018-02-05T13:54:21.109Z,8.47
2018-02-05T13:55:31.166Z,8.46
2018-02-05T13:56:40.956Z,8.54
2018-02-05T13:57:50.738Z,8.52
2018-02-05T13:59:00.790Z,8.5
2018-02-05T14:00:10.576Z,8.46
2018-02-05T14:01:20.634Z,8.54
2018-02-05T14:02:30.441Z,8.49
2018-02-05T14:03:40.495Z,8.43
2018-02-05T14:04:50.270Z,8.52
2018-02-05T14:06:00.340Z,8.43
2018-02-05T14:07:10.446Z,8.39
2018-02-05T14:08:20.511Z,8.39
2018-02-05T14:09:30.563Z,8.43
2018-02-05T14:10:40.632Z,8.31
2018-02-05T14:11:50.707Z,8.26
2018-02-05T14:13:00.500Z,8.19
2018-02-05T14:14:10.559Z,8.24
2018-02-05T14:15:20.335Z,8.21
2018-02-05T14:16:30.415Z,8.11
2018-02-05T14:17:39.959Z,8.13
2018-02-05T14:18:50.062Z,7.96
2018-02-05T14:20:00.128Z,8.03
2018-02-05T14:21:10.174Z,8.04
2018-02-05T14:22:20.241Z,7.95
2018-02-05T14:23:29.777Z,7.91
2018-02-05T14:24:39.909Z,7.98
2018-02-05T14:25:49.972Z,8.03
2018-02-05T14:27:00.047Z,8.04
2018-02-05T14:28:10.081Z,8.06
2018-02-05T14:29:19.893Z,8.03
2018-02-05T14:30:29.448Z,8.04
2018-02-05T14:31:39.516Z,7.93
2018-02-05T14:32:49.094Z,7.92
2018-02-05T14:33:59.165Z,7.95
2018-02-05T14:35:08.963Z,7.93
2018-02-05T14:36:18.812Z,7.88
2018-02-05T14:37:28.859Z,7.91
2018-02-05T14:38:38.911Z,7.95
2018-02-05T14:39:48.977Z,7.88
2018-02-05T14:40:59.059Z,7.91
2018-02-05T14:42:09.112Z,7.93
2018-02-05T14:43:18.927Z,7.82
2018-02-05T14:44:28.976Z,7.92
2018-02-05T14:45:38.772Z,7.78
2018-02-05T14:46:48.818Z,7.77
2018-02-05T14:47:58.890Z,7.73
2018-02-05T14:49:08.956Z,7.68
2018-02-05T14:50:19.000Z,7.64
2018-02-05T14:51:29.049Z,7.64
2018-02-05T14:52:39.094Z,7.58
2018-02-05T14:53:48.353Z,7.68
2018-02-05T14:54:58.151Z,7.67
2018-02-05T14:56:08.233Z,7.58
2018-02-05T14:57:18.297Z,7.58
2018-02-05T14:58:28.350Z,7.59
2018-02-05T14:59:38.401Z,7.54
2018-02-05T15:00:48.458Z,7.68
2018-02-05T15:01:58.502Z,7.54
2018-02-05T15:03:08.563Z,7.51
2018-02-05T15:04:18.628Z,7.51
2018-02-05T15:05:28.706Z,7.48
2018-02-05T15:06:38.756Z,7.51
2018-02-05T15:07:48.807Z,7.49
2018-02-05T15:08:59.657Z,7.39
2018-02-05T15:10:09.724Z,7.36
2018-02-05T15:11:19.590Z,7.37
2018-02-05T15:12:29.441Z,7.37
2018-02-05T15:13:39.503Z,7.34
2018-02-05T15:14:49.285Z,7.27
2018-02-05T15:15:59.346Z,7.36
2018-02-05T15:17:09.425Z,7.21
2018-02-05T15:18:19.532Z,7.22
2018-02-05T15:19:29.594Z,7.3
2018-02-05T15:20:39.649Z,7.22
2018-02-05T15:21:49.451Z,7.16
2018-02-05T15:22:59.235Z,7.12
2018-02-05T15:24:09.082Z,7.05
2018-02-05T15:25:18.894Z,6.98
2018-02-05T15:26:28.941Z,6.93
2018-02-05T15:27:39.012Z,7
2018-02-05T15:28:49.075Z,6.98
2018-02-05T15:29:59.189Z,6.9
2018-02-05T15:31:09.243Z,6.82
2018-02-05T15:32:19.297Z,6.82
2018-02-05T15:33:29.367Z,6.79
2018-02-05T15:34:39.411Z,6.82
2018-02-05T15:35:49.527Z,6.79
2018-02-05T15:36:59.698Z,6.75
2018-02-05T15:38:09.840Z,6.79
2018-02-05T15:39:19.941Z,6.78
2018-02-05T15:40:29.984Z,6.83
2018-02-05T15:41:40.098Z,6.78
2018-02-05T15:42:50.143Z,6.79
2018-02-05T15:44:00.290Z,6.72
2018-02-05T15:45:10.333Z,6.67
2018-02-05T15:46:20.394Z,6.67
2018-02-05T15:47:30.450Z,6.75
2018-02-05T15:48:40.253Z,6.67
2018-02-05T15:49:50.343Z,6.67
2018-02-05T15:51:00.116Z,6.62
2018-02-05T15:52:10.177Z,6.55
2018-02-05T15:53:20.277Z,6.55
2018-02-05T15:54:30.343Z,6.54
2018-02-05T15:55:40.392Z,6.39
2018-02-05T15:56:50.458Z,6.42
2018-02-05T15:58:00.512Z,6.44
2018-02-05T15:59:10.570Z,6.46
2018-02-05T16:00:20.642Z,6.36
2018-02-05T16:01:30.697Z,6.34
2018-02-05T16:02:40.208Z,6.36
2018-02-05T16:03:50.259Z,6.34